Wetterdaten: aktuell Mittwoch, 16.04.2014 13:48
Datum Zeit Temperatur Feuchte Luftdruck Regen Wind Richtung Richtung Taupunkt Windchill
16.04.2014 13:48 0,7 C 85 % 1031,1 hPa 699,5 l/m 2,7 km/h (1 Bft) N-NW 345 -1,5 C 0,7 C
16.04.2014 12:48 0,5 C 83 % 1030,1 hPa 1423,5 l/m 0,0 km/h (0 Bft) N-NO 15 -2,0 C 0,5 C
16.04.2014 11:48 1,2 C 46 % 1030,0 hPa 0,0 l/m 7,4 km/h (2 Bft) N22.5 360 -9,1 C -1,1 C
16.04.2014 10:48 12,4 C 62 % 1030,1 hPa 0,0 l/m 0,2 km/h (0 Bft) S 170 5,3 C 12,4 C
16.04.2014 09:48 7,6 C 77 % 1030,5 hPa 0,0 l/m 3,3 km/h (1 Bft) S45 180 3,8 C 7,6 C
16.04.2014 08:48 2,4 C 87 % 1031,0 hPa 0,0 l/m 0,4 km/h (0 Bft) O 90 0,5 C 2,4 C
16.04.2014 07:48 0,9 C 85 % 1031,1 hPa 0,0 l/m 0,0 km/h (0 Bft) N 350 -1,3 C 0,9 C
16.04.2014 06:48 0,4 C 83 % 1030,1 hPa 0,0 l/m 2,0 km/h (1 Bft) N 360 -2,1 C 0,4 C
16.04.2014 05:48 1,2 C 82 % 1030,0 hPa 0,0 l/m 4,7 km/h (1 Bft) N22.5 5 -1,5 C -0,1 C
16.04.2014 04:45 1,2 C 79 % 1030,0 hPa 0,0 l/m 3,3 km/h (1 Bft) N 360 -2,0 C 1,2 C
16.04.2014 03:45 2,5 C 77 % 1029,9 hPa 0,0 l/m 3,2 km/h (1 Bft) N 10 -1,1 C 2,5 C
16.04.2014 02:45 3,0 C 77 % 1028,8 hPa 0,0 l/m 6,2 km/h (2 Bft) N-NO45 20 -0,6 C 1,4 C
16.04.2014 01:45 3,6 C 74 % 1028,8 hPa 0,0 l/m 7,3 km/h (2 Bft) N45 350 -0,6 C 1,7 C
16.04.2014 00:45 5,1 C 73 % 1028,7 hPa 0,0 l/m 7,0 km/h (2 Bft) N45 10 0,7 C 3,5 C
15.04.2014 23:45 4,2 C 75 % 1028,7 hPa 0,0 l/m 10,1 km/h (2 Bft) N-NW22.5 340 0,2 C 1,7 C
15.04.2014 22:45 5,5 C 71 % 1027,6 hPa 0,0 l/m 10,6 km/h (2 Bft) N-NW22.5 330 0,7 C 3,1 C
15.04.2014 21:45 5,9 C 68 % 1027,6 hPa 0,0 l/m 11,3 km/h (2 Bft) NW22.5 325 0,5 C 3,5 C
15.04.2014 20:45 7,2 C 64 % 1026,4 hPa 0,0 l/m 11,4 km/h (2 Bft) N-NW22.5 330 0,9 C 5,0 C
15.04.2014 19:45 7,6 C 63 % 1025,4 hPa 0,0 l/m 17,0 km/h (3 Bft) NW 325 1,0 C 4,7 C
15.04.2014 18:45 9,6 C 59 % 1026,2 hPa 0,0 l/m 18,7 km/h (3 Bft) N-NW45 330 2,0 C 7,0 C
15.04.2014 17:45 10,4 C 58 % 1026,1 hPa 0,0 l/m 21,1 km/h (4 Bft) NW22.5 325 2,5 C 10,4 C
15.04.2014 16:45 10,4 C 60 % 1026,1 hPa 0,0 l/m 14,0 km/h (3 Bft) NW 320 3,0 C 10,4 C
15.04.2014 15:45 9,9 C 61 % 1026,2 hPa 0,0 l/m 8,5 km/h (2 Bft) NW45 315 2,7 C 8,8 C
15.04.2014 14:45 9,5 C 64 % 1026,2 hPa 0,0 l/m 8,1 km/h (2 Bft) NW45 310 3,0 C 8,4 C
15.04.2014 14:00 9,3 C 63 % 1026,2 hPa 0,0 l/m 10,4 km/h (2 Bft) NW45 315 2,6 C 7,7 C
_ Min-Zeit 06:30 11:48 11:54 - 03:57 - - 11:48 13:45
Minimum _ 0,4 C 46 % 0,0 hPa - 0,0 km/h (0 Bft) - - -9,1 C -4,0 C
_ Max-Zeit 11:27 08:30 10:12 12:12 16:57 - - 12:45 11:27
Maximum _ 13,4 C 87 % 1031,3 hPa 699,5 l/m 26,8 km/h
NW (4 Bft)
- - 10,6 C 13,4 C
Durchschnitt _ 5,6 C 71 % 1024,2 hPa #2123,0 l/m 8,4 km/h (2 Bft) NW - 0,7 C 4,3 C